sensor_id;sensor_type;location;lat;lon;timestamp;P1;durP1;ratioP1;P2;durP2;ratioP2
30519;SDS011;17300;50.374;8.006;2023-04-24T00:00:45;0.90;;;0.90;;
30519;SDS011;17300;50.374;8.006;2023-04-24T00:03:12;1.00;;;0.90;;
30519;SDS011;17300;50.374;8.006;2023-04-24T00:05:40;0.87;;;0.87;;
30519;SDS011;17300;50.374;8.006;2023-04-24T00:08:07;1.30;;;1.20;;
30519;SDS011;17300;50.374;8.006;2023-04-24T00:10:34;1.27;;;1.10;;
30519;SDS011;17300;50.374;8.006;2023-04-24T00:13:01;1.93;;;1.00;;
30519;SDS011;17300;50.374;8.006;2023-04-24T00:15:27;2.33;;;1.30;;
30519;SDS011;17300;50.374;8.006;2023-04-24T00:17:54;1.23;;;1.10;;
30519;SDS011;17300;50.374;8.006;2023-04-24T00:20:20;1.43;;;1.23;;
30519;SDS011;17300;50.374;8.006;2023-04-24T00:22:48;1.30;;;1.20;;
30519;SDS011;17300;50.374;8.006;2023-04-24T00:25:15;1.33;;;1.17;;
30519;SDS011;17300;50.374;8.006;2023-04-24T00:27:42;1.27;;;1.17;;
30519;SDS011;17300;50.374;8.006;2023-04-24T00:30:09;1.33;;;1.20;;
30519;SDS011;17300;50.374;8.006;2023-04-24T00:32:36;1.37;;;1.20;;
30519;SDS011;17300;50.374;8.006;2023-04-24T00:35:03;0.90;;;0.90;;
30519;SDS011;17300;50.374;8.006;2023-04-24T00:37:30;0.80;;;0.80;;
30519;SDS011;17300;50.374;8.006;2023-04-24T00:39:58;0.80;;;0.80;;
30519;SDS011;17300;50.374;8.006;2023-04-24T00:42:25;1.10;;;0.90;;
30519;SDS011;17300;50.374;8.006;2023-04-24T00:44:52;0.90;;;0.70;;
30519;SDS011;17300;50.374;8.006;2023-04-24T00:47:19;0.80;;;0.80;;
30519;SDS011;17300;50.374;8.006;2023-04-24T00:49:46;2.00;;;1.13;;
30519;SDS011;17300;50.374;8.006;2023-04-24T00:52:13;0.67;;;0.67;;
30519;SDS011;17300;50.374;8.006;2023-04-24T00:54:42;0.60;;;0.60;;
30519;SDS011;17300;50.374;8.006;2023-04-24T00:57:10;1.13;;;0.70;;
30519;SDS011;17300;50.374;8.006;2023-04-24T00:59:38;0.80;;;0.80;;
30519;SDS011;17300;50.374;8.006;2023-04-24T01:02:06;0.80;;;0.80;;
30519;SDS011;17300;50.374;8.006;2023-04-24T01:04:33;0.90;;;0.87;;
30519;SDS011;17300;50.374;8.006;2023-04-24T01:07:01;1.13;;;0.70;;
30519;SDS011;17300;50.374;8.006;2023-04-24T01:09:28;1.00;;;0.80;;
30519;SDS011;17300;50.374;8.006;2023-04-24T01:11:55;0.80;;;0.80;;
30519;SDS011;17300;50.374;8.006;2023-04-24T01:14:23;0.60;;;0.60;;
30519;SDS011;17300;50.374;8.006;2023-04-24T01:16:50;1.27;;;0.70;;
30519;SDS011;17300;50.374;8.006;2023-04-24T01:19:17;0.60;;;0.60;;
30519;SDS011;17300;50.374;8.006;2023-04-24T01:21:46;0.60;;;0.60;;
30519;SDS011;17300;50.374;8.006;2023-04-24T01:24:16;0.60;;;0.60;;
30519;SDS011;17300;50.374;8.006;2023-04-24T01:26:44;0.53;;;0.53;;
30519;SDS011;17300;50.374;8.006;2023-04-24T01:29:10;0.80;;;0.47;;
30519;SDS011;17300;50.374;8.006;2023-04-24T01:31:38;0.87;;;0.60;;
30519;SDS011;17300;50.374;8.006;2023-04-24T01:34:05;0.60;;;0.60;;
30519;SDS011;17300;50.374;8.006;2023-04-24T01:36:33;0.70;;;0.50;;
30519;SDS011;17300;50.374;8.006;2023-04-24T01:39:05;0.50;;;0.50;;
30519;SDS011;17300;50.374;8.006;2023-04-24T01:41:34;0.50;;;0.50;;
30519;SDS011;17300;50.374;8.006;2023-04-24T01:44:00;0.50;;;0.50;;
30519;SDS011;17300;50.374;8.006;2023-04-24T01:46:28;0.50;;;0.47;;
30519;SDS011;17300;50.374;8.006;2023-04-24T01:48:55;1.27;;;0.60;;
30519;SDS011;17300;50.374;8.006;2023-04-24T01:51:22;0.70;;;0.57;;
30519;SDS011;17300;50.374;8.006;2023-04-24T01:53:49;0.47;;;0.40;;
30519;SDS011;17300;50.374;8.006;2023-04-24T01:56:16;0.90;;;0.50;;
30519;SDS011;17300;50.374;8.006;2023-04-24T01:58:44;0.50;;;0.50;;
30519;SDS011;17300;50.374;8.006;2023-04-24T02:01:14;0.40;;;0.40;;
30519;SDS011;17300;50.374;8.006;2023-04-24T02:03:43;0.50;;;0.50;;
30519;SDS011;17300;50.374;8.006;2023-04-24T02:06:10;0.40;;;0.40;;
30519;SDS011;17300;50.374;8.006;2023-04-24T02:08:37;0.73;;;0.40;;
30519;SDS011;17300;50.374;8.006;2023-04-24T02:11:04;0.40;;;0.40;;
30519;SDS011;17300;50.374;8.006;2023-04-24T02:13:31;0.50;;;0.50;;
30519;SDS011;17300;50.374;8.006;2023-04-24T02:15:59;0.40;;;0.40;;
30519;SDS011;17300;50.374;8.006;2023-04-24T02:18:26;0.40;;;0.40;;
30519;SDS011;17300;50.374;8.006;2023-04-24T02:20:52;0.37;;;0.33;;
30519;SDS011;17300;50.374;8.006;2023-04-24T02:23:19;0.50;;;0.50;;
30519;SDS011;17300;50.374;8.006;2023-04-24T02:25:46;0.87;;;0.37;;
30519;SDS011;17300;50.374;8.006;2023-04-24T02:28:12;0.57;;;0.40;;
30519;SDS011;17300;50.374;8.006;2023-04-24T02:30:39;0.30;;;0.30;;
30519;SDS011;17300;50.374;8.006;2023-04-24T02:33:07;1.43;;;0.40;;
30519;SDS011;17300;50.374;8.006;2023-04-24T02:35:34;0.63;;;0.50;;
30519;SDS011;17300;50.374;8.006;2023-04-24T02:38:01;0.63;;;0.50;;
30519;SDS011;17300;50.374;8.006;2023-04-24T02:40:28;0.57;;;0.40;;
30519;SDS011;17300;50.374;8.006;2023-04-24T02:42:54;1.67;;;0.50;;
30519;SDS011;17300;50.374;8.006;2023-04-24T02:45:21;0.50;;;0.50;;
30519;SDS011;17300;50.374;8.006;2023-04-24T02:47:48;0.50;;;0.50;;
30519;SDS011;17300;50.374;8.006;2023-04-24T02:50:16;0.40;;;0.40;;
30519;SDS011;17300;50.374;8.006;2023-04-24T02:52:42;0.70;;;0.60;;
30519;SDS011;17300;50.374;8.006;2023-04-24T02:55:09;0.60;;;0.50;;
30519;SDS011;17300;50.374;8.006;2023-04-24T02:57:36;0.50;;;0.40;;
30519;SDS011;17300;50.374;8.006;2023-04-24T03:00:03;0.70;;;0.70;;
30519;SDS011;17300;50.374;8.006;2023-04-24T03:02:32;0.50;;;0.50;;
30519;SDS011;17300;50.374;8.006;2023-04-24T03:04:58;0.50;;;0.50;;
30519;SDS011;17300;50.374;8.006;2023-04-24T03:07:27;0.63;;;0.57;;
30519;SDS011;17300;50.374;8.006;2023-04-24T03:09:53;0.60;;;0.50;;
30519;SDS011;17300;50.374;8.006;2023-04-24T03:12:20;1.07;;;0.67;;
30519;SDS011;17300;50.374;8.006;2023-04-24T03:14:48;0.50;;;0.50;;
30519;SDS011;17300;50.374;8.006;2023-04-24T03:17:15;0.63;;;0.63;;
30519;SDS011;17300;50.374;8.006;2023-04-24T03:19:42;0.50;;;0.50;;
30519;SDS011;17300;50.374;8.006;2023-04-24T03:22:08;2.43;;;0.70;;
30519;SDS011;17300;50.374;8.006;2023-04-24T03:24:37;0.50;;;0.50;;
30519;SDS011;17300;50.374;8.006;2023-04-24T03:27:04;0.70;;;0.70;;
30519;SDS011;17300;50.374;8.006;2023-04-24T03:29:30;0.50;;;0.50;;
30519;SDS011;17300;50.374;8.006;2023-04-24T03:31:57;0.50;;;0.50;;
30519;SDS011;17300;50.374;8.006;2023-04-24T03:34:24;0.90;;;0.70;;
30519;SDS011;17300;50.374;8.006;2023-04-24T03:36:51;0.70;;;0.70;;
30519;SDS011;17300;50.374;8.006;2023-04-24T03:39:17;0.80;;;0.80;;
30519;SDS011;17300;50.374;8.006;2023-04-24T03:41:46;0.60;;;0.60;;
30519;SDS011;17300;50.374;8.006;2023-04-24T03:44:12;0.60;;;0.60;;
30519;SDS011;17300;50.374;8.006;2023-04-24T03:46:39;0.63;;;0.60;;
30519;SDS011;17300;50.374;8.006;2023-04-24T03:49:06;0.60;;;0.60;;
30519;SDS011;17300;50.374;8.006;2023-04-24T03:51:32;0.70;;;0.70;;
30519;SDS011;17300;50.374;8.006;2023-04-24T03:53:59;1.03;;;0.70;;
30519;SDS011;17300;50.374;8.006;2023-04-24T03:56:26;1.10;;;0.67;;
30519;SDS011;17300;50.374;8.006;2023-04-24T03:58:53;1.47;;;0.70;;
30519;SDS011;17300;50.374;8.006;2023-04-24T04:01:20;0.70;;;0.70;;
30519;SDS011;17300;50.374;8.006;2023-04-24T04:03:48;1.83;;;0.73;;
30519;SDS011;17300;50.374;8.006;2023-04-24T04:06:14;0.80;;;0.80;;
30519;SDS011;17300;50.374;8.006;2023-04-24T04:08:41;0.80;;;0.80;;
30519;SDS011;17300;50.374;8.006;2023-04-24T04:11:07;1.27;;;0.80;;
30519;SDS011;17300;50.374;8.006;2023-04-24T04:13:34;0.87;;;0.87;;
30519;SDS011;17300;50.374;8.006;2023-04-24T04:16:02;0.90;;;0.90;;
30519;SDS011;17300;50.374;8.006;2023-04-24T04:18:29;1.00;;;0.90;;
30519;SDS011;17300;50.374;8.006;2023-04-24T04:20:56;0.93;;;0.90;;
30519;SDS011;17300;50.374;8.006;2023-04-24T04:23:22;0.90;;;0.90;;
30519;SDS011;17300;50.374;8.006;2023-04-24T04:25:49;1.37;;;0.80;;
30519;SDS011;17300;50.374;8.006;2023-04-24T04:28:16;1.57;;;0.80;;
30519;SDS011;17300;50.374;8.006;2023-04-24T04:30:44;0.90;;;0.90;;
30519;SDS011;17300;50.374;8.006;2023-04-24T04:33:13;0.80;;;0.80;;
30519;SDS011;17300;50.374;8.006;2023-04-24T04:35:40;1.00;;;0.90;;
30519;SDS011;17300;50.374;8.006;2023-04-24T04:38:07;1.07;;;1.00;;
30519;SDS011;17300;50.374;8.006;2023-04-24T04:40:35;0.80;;;0.80;;
30519;SDS011;17300;50.374;8.006;2023-04-24T04:43:02;0.93;;;0.90;;
30519;SDS011;17300;50.374;8.006;2023-04-24T04:45:29;0.80;;;0.80;;
30519;SDS011;17300;50.374;8.006;2023-04-24T04:47:57;0.87;;;0.67;;
30519;SDS011;17300;50.374;8.006;2023-04-24T04:50:27;0.80;;;0.80;;
30519;SDS011;17300;50.374;8.006;2023-04-24T04:52:53;2.10;;;1.10;;
30519;SDS011;17300;50.374;8.006;2023-04-24T04:55:20;3.20;;;1.27;;
30519;SDS011;17300;50.374;8.006;2023-04-24T04:57:47;1.50;;;1.03;;
30519;SDS011;17300;50.374;8.006;2023-04-24T05:00:14;0.77;;;0.77;;
30519;SDS011;17300;50.374;8.006;2023-04-24T05:02:41;0.90;;;0.90;;
30519;SDS011;17300;50.374;8.006;2023-04-24T05:05:07;0.93;;;0.77;;
30519;SDS011;17300;50.374;8.006;2023-04-24T05:07:36;0.87;;;0.87;;
30519;SDS011;17300;50.374;8.006;2023-04-24T05:10:03;4.10;;;1.10;;
30519;SDS011;17300;50.374;8.006;2023-04-24T05:12:30;1.10;;;1.00;;
30519;SDS011;17300;50.374;8.006;2023-04-24T05:14:56;1.07;;;0.80;;
30519;SDS011;17300;50.374;8.006;2023-04-24T05:17:23;1.00;;;1.00;;
30519;SDS011;17300;50.374;8.006;2023-04-24T05:19:50;1.07;;;0.97;;
30519;SDS011;17300;50.374;8.006;2023-04-24T05:22:17;1.33;;;1.23;;
30519;SDS011;17300;50.374;8.006;2023-04-24T05:24:47;1.30;;;1.20;;
30519;SDS011;17300;50.374;8.006;2023-04-24T05:27:14;1.60;;;1.17;;
30519;SDS011;17300;50.374;8.006;2023-04-24T05:29:40;1.67;;;1.57;;
30519;SDS011;17300;50.374;8.006;2023-04-24T05:32:07;2.17;;;1.37;;
30519;SDS011;17300;50.374;8.006;2023-04-24T05:34:34;1.50;;;1.40;;
30519;SDS011;17300;50.374;8.006;2023-04-24T05:37:01;1.30;;;1.20;;
30519;SDS011;17300;50.374;8.006;2023-04-24T05:39:28;1.30;;;1.30;;
30519;SDS011;17300;50.374;8.006;2023-04-24T05:41:56;1.47;;;1.37;;
30519;SDS011;17300;50.374;8.006;2023-04-24T05:44:23;1.40;;;1.30;;
30519;SDS011;17300;50.374;8.006;2023-04-24T05:46:50;1.40;;;1.30;;
30519;SDS011;17300;50.374;8.006;2023-04-24T05:49:17;2.03;;;1.90;;
30519;SDS011;17300;50.374;8.006;2023-04-24T05:51:44;1.60;;;1.50;;
30519;SDS011;17300;50.374;8.006;2023-04-24T05:54:10;1.60;;;1.50;;
30519;SDS011;17300;50.374;8.006;2023-04-24T05:56:39;1.58;;;1.42;;
30519;SDS011;17300;50.374;8.006;2023-04-24T05:59:07;1.40;;;1.30;;
30519;SDS011;17300;50.374;8.006;2023-04-24T06:01:34;1.48;;;1.38;;
30519;SDS011;17300;50.374;8.006;2023-04-24T06:04:02;1.58;;;1.48;;
30519;SDS011;17300;50.374;8.006;2023-04-24T06:06:28;1.60;;;1.50;;
30519;SDS011;17300;50.374;8.006;2023-04-24T06:08:56;1.60;;;1.50;;
30519;SDS011;17300;50.374;8.006;2023-04-24T06:11:23;1.60;;;1.50;;
30519;SDS011;17300;50.374;8.006;2023-04-24T06:13:50;1.60;;;1.50;;
30519;SDS011;17300;50.374;8.006;2023-04-24T06:16:19;1.60;;;1.50;;
30519;SDS011;17300;50.374;8.006;2023-04-24T06:18:46;1.40;;;1.30;;
30519;SDS011;17300;50.374;8.006;2023-04-24T06:21:15;1.42;;;1.33;;
30519;SDS011;17300;50.374;8.006;2023-04-24T06:23:43;1.73;;;1.63;;
30519;SDS011;17300;50.374;8.006;2023-04-24T06:26:11;2.05;;;1.58;;
30519;SDS011;17300;50.374;8.006;2023-04-24T06:28:43;1.75;;;1.65;;
30519;SDS011;17300;50.374;8.006;2023-04-24T06:31:37;1.45;;;1.35;;
30519;SDS011;17300;50.374;8.006;2023-04-24T06:34:04;1.83;;;1.73;;
30519;SDS011;17300;50.374;8.006;2023-04-24T06:36:31;1.77;;;1.67;;
30519;SDS011;17300;50.374;8.006;2023-04-24T06:38:59;1.90;;;1.80;;
30519;SDS011;17300;50.374;8.006;2023-04-24T06:41:26;1.75;;;1.65;;
30519;SDS011;17300;50.374;8.006;2023-04-24T06:43:54;1.77;;;1.67;;
30519;SDS011;17300;50.374;8.006;2023-04-24T06:46:21;2.30;;;2.10;;
30519;SDS011;17300;50.374;8.006;2023-04-24T06:48:50;2.00;;;1.88;;
30519;SDS011;17300;50.374;8.006;2023-04-24T06:51:16;1.85;;;1.75;;
30519;SDS011;17300;50.374;8.006;2023-04-24T06:53:44;1.65;;;1.55;;
30519;SDS011;17300;50.374;8.006;2023-04-24T06:56:10;1.65;;;1.55;;
30519;SDS011;17300;50.374;8.006;2023-04-24T06:58:37;1.52;;;1.42;;
30519;SDS011;17300;50.374;8.006;2023-04-24T07:01:04;1.58;;;1.48;;
30519;SDS011;17300;50.374;8.006;2023-04-24T07:03:31;1.73;;;1.50;;
30519;SDS011;17300;50.374;8.006;2023-04-24T07:05:59;1.40;;;1.30;;
30519;SDS011;17300;50.374;8.006;2023-04-24T07:08:25;1.60;;;1.50;;
30519;SDS011;17300;50.374;8.006;2023-04-24T07:10:53;1.90;;;1.70;;
30519;SDS011;17300;50.374;8.006;2023-04-24T07:13:21;1.50;;;1.40;;
30519;SDS011;17300;50.374;8.006;2023-04-24T07:15:47;1.52;;;1.42;;
30519;SDS011;17300;50.374;8.006;2023-04-24T07:18:15;1.55;;;1.40;;
30519;SDS011;17300;50.374;8.006;2023-04-24T07:20:43;1.33;;;1.23;;
30519;SDS011;17300;50.374;8.006;2023-04-24T07:23:11;1.30;;;1.20;;
30519;SDS011;17300;50.374;8.006;2023-04-24T07:25:37;1.13;;;1.13;;
30519;SDS011;17300;50.374;8.006;2023-04-24T07:28:05;1.15;;;1.08;;
30519;SDS011;17300;50.374;8.006;2023-04-24T07:30:32;1.50;;;1.40;;
30519;SDS011;17300;50.374;8.006;2023-04-24T07:32:59;1.30;;;1.20;;
30519;SDS011;17300;50.374;8.006;2023-04-24T07:35:26;1.60;;;1.48;;
30519;SDS011;17300;50.374;8.006;2023-04-24T07:37:53;1.15;;;1.05;;
30519;SDS011;17300;50.374;8.006;2023-04-24T07:40:21;1.20;;;1.10;;
30519;SDS011;17300;50.374;8.006;2023-04-24T07:42:48;1.33;;;1.23;;
30519;SDS011;17300;50.374;8.006;2023-04-24T07:45:15;2.00;;;1.20;;
30519;SDS011;17300;50.374;8.006;2023-04-24T07:47:42;0.88;;;0.88;;
30519;SDS011;17300;50.374;8.006;2023-04-24T07:50:10;1.13;;;1.02;;
30519;SDS011;17300;50.374;8.006;2023-04-24T07:52:37;1.30;;;1.20;;
30519;SDS011;17300;50.374;8.006;2023-04-24T07:55:04;1.15;;;1.10;;
30519;SDS011;17300;50.374;8.006;2023-04-24T07:57:33;1.25;;;1.17;;
30519;SDS011;17300;50.374;8.006;2023-04-24T08:00:00;1.52;;;1.30;;
30519;SDS011;17300;50.374;8.006;2023-04-24T08:02:28;1.00;;;1.00;;
30519;SDS011;17300;50.374;8.006;2023-04-24T08:04:55;1.10;;;1.10;;
30519;SDS011;17300;50.374;8.006;2023-04-24T08:07:22;1.67;;;1.50;;
30519;SDS011;17300;50.374;8.006;2023-04-24T08:09:49;1.30;;;1.20;;
30519;SDS011;17300;50.374;8.006;2023-04-24T08:12:16;1.40;;;1.30;;
30519;SDS011;17300;50.374;8.006;2023-04-24T08:14:44;1.27;;;1.07;;
30519;SDS011;17300;50.374;8.006;2023-04-24T08:17:11;1.20;;;1.20;;
30519;SDS011;17300;50.374;8.006;2023-04-24T08:19:39;1.30;;;1.20;;
30519;SDS011;17300;50.374;8.006;2023-04-24T08:22:12;1.13;;;1.03;;
30519;SDS011;17300;50.374;8.006;2023-04-24T08:24:39;1.30;;;1.07;;
30519;SDS011;17300;50.374;8.006;2023-04-24T08:27:05;0.83;;;0.83;;
30519;SDS011;17300;50.374;8.006;2023-04-24T08:29:32;1.17;;;0.90;;
30519;SDS011;17300;50.374;8.006;2023-04-24T08:32:00;0.70;;;0.70;;
30519;SDS011;17300;50.374;8.006;2023-04-24T08:34:26;1.50;;;1.00;;
30519;SDS011;17300;50.374;8.006;2023-04-24T08:36:53;1.50;;;0.80;;
30519;SDS011;17300;50.374;8.006;2023-04-24T08:39:20;1.00;;;0.90;;
30519;SDS011;17300;50.374;8.006;2023-04-24T08:41:46;1.00;;;0.90;;
30519;SDS011;17300;50.374;8.006;2023-04-24T08:44:15;0.87;;;0.87;;
30519;SDS011;17300;50.374;8.006;2023-04-24T08:46:42;0.97;;;0.87;;
30519;SDS011;17300;50.374;8.006;2023-04-24T08:49:12;0.80;;;0.80;;
30519;SDS011;17300;50.374;8.006;2023-04-24T08:51:41;0.70;;;0.70;;
30519;SDS011;17300;50.374;8.006;2023-04-24T08:54:08;0.83;;;0.83;;
30519;SDS011;17300;50.374;8.006;2023-04-24T08:56:35;0.90;;;0.90;;
30519;SDS011;17300;50.374;8.006;2023-04-24T08:59:04;0.67;;;0.67;;
30519;SDS011;17300;50.374;8.006;2023-04-24T09:01:32;0.60;;;0.60;;
30519;SDS011;17300;50.374;8.006;2023-04-24T09:04:01;0.77;;;0.60;;
30519;SDS011;17300;50.374;8.006;2023-04-24T09:06:30;0.60;;;0.60;;
30519;SDS011;17300;50.374;8.006;2023-04-24T09:08:58;0.63;;;0.63;;
30519;SDS011;17300;50.374;8.006;2023-04-24T09:11:27;0.60;;;0.60;;
30519;SDS011;17300;50.374;8.006;2023-04-24T09:13:54;0.60;;;0.60;;
30519;SDS011;17300;50.374;8.006;2023-04-24T09:16:21;0.50;;;0.50;;
30519;SDS011;17300;50.374;8.006;2023-04-24T09:18:49;0.53;;;0.53;;
30519;SDS011;17300;50.374;8.006;2023-04-24T09:21:16;0.70;;;0.60;;
30519;SDS011;17300;50.374;8.006;2023-04-24T09:23:44;0.50;;;0.50;;
30519;SDS011;17300;50.374;8.006;2023-04-24T09:26:10;0.60;;;0.60;;
30519;SDS011;17300;50.374;8.006;2023-04-24T09:28:41;0.63;;;0.63;;
30519;SDS011;17300;50.374;8.006;2023-04-24T09:31:09;1.37;;;0.60;;
30519;SDS011;17300;50.374;8.006;2023-04-24T09:33:38;1.07;;;0.70;;
30519;SDS011;17300;50.374;8.006;2023-04-24T09:36:05;0.60;;;0.60;;
30519;SDS011;17300;50.374;8.006;2023-04-24T09:38:32;0.70;;;0.70;;
30519;SDS011;17300;50.374;8.006;2023-04-24T09:41:02;0.50;;;0.50;;
30519;SDS011;17300;50.374;8.006;2023-04-24T09:43:31;0.40;;;0.40;;
30519;SDS011;17300;50.374;8.006;2023-04-24T09:45:59;0.63;;;0.60;;
30519;SDS011;17300;50.374;8.006;2023-04-24T09:48:31;0.50;;;0.50;;
30519;SDS011;17300;50.374;8.006;2023-04-24T09:50:58;0.60;;;0.60;;
30519;SDS011;17300;50.374;8.006;2023-04-24T09:53:26;0.70;;;0.60;;
30519;SDS011;17300;50.374;8.006;2023-04-24T09:55:53;0.50;;;0.50;;
30519;SDS011;17300;50.374;8.006;2023-04-24T09:58:25;0.43;;;0.43;;
30519;SDS011;17300;50.374;8.006;2023-04-24T10:00:55;0.50;;;0.50;;
30519;SDS011;17300;50.374;8.006;2023-04-24T10:03:23;0.40;;;0.40;;
30519;SDS011;17300;50.374;8.006;2023-04-24T10:05:52;0.40;;;0.40;;
30519;SDS011;17300;50.374;8.006;2023-04-24T10:08:19;0.40;;;0.40;;
30519;SDS011;17300;50.374;8.006;2023-04-24T10:10:46;0.50;;;0.50;;
30519;SDS011;17300;50.374;8.006;2023-04-24T10:13:13;0.40;;;0.40;;
30519;SDS011;17300;50.374;8.006;2023-04-24T10:15:42;0.50;;;0.50;;
30519;SDS011;17300;50.374;8.006;2023-04-24T10:18:10;0.53;;;0.53;;
30519;SDS011;17300;50.374;8.006;2023-04-24T10:20:38;0.60;;;0.60;;
30519;SDS011;17300;50.374;8.006;2023-04-24T10:23:06;0.60;;;0.60;;
30519;SDS011;17300;50.374;8.006;2023-04-24T10:25:33;0.53;;;0.53;;
30519;SDS011;17300;50.374;8.006;2023-04-24T10:28:02;0.50;;;0.50;;
30519;SDS011;17300;50.374;8.006;2023-04-24T10:30:30;0.93;;;0.57;;
30519;SDS011;17300;50.374;8.006;2023-04-24T10:33:01;0.70;;;0.60;;
30519;SDS011;17300;50.374;8.006;2023-04-24T10:35:30;0.50;;;0.50;;
30519;SDS011;17300;50.374;8.006;2023-04-24T10:37:58;0.50;;;0.50;;
30519;SDS011;17300;50.374;8.006;2023-04-24T10:40:29;0.60;;;0.47;;
30519;SDS011;17300;50.374;8.006;2023-04-24T10:42:57;0.43;;;0.43;;
30519;SDS011;17300;50.374;8.006;2023-04-24T10:45:24;0.40;;;0.40;;
30519;SDS011;17300;50.374;8.006;2023-04-24T10:48:02;0.60;;;0.50;;
30519;SDS011;17300;50.374;8.006;2023-04-24T10:50:41;0.93;;;0.53;;
30519;SDS011;17300;50.374;8.006;2023-04-24T10:53:12;0.90;;;0.60;;
30519;SDS011;17300;50.374;8.006;2023-04-24T10:55:41;0.80;;;0.60;;
30519;SDS011;17300;50.374;8.006;2023-04-24T10:58:12;0.50;;;0.50;;
30519;SDS011;17300;50.374;8.006;2023-04-24T11:00:40;0.60;;;0.60;;
30519;SDS011;17300;50.374;8.006;2023-04-24T11:03:22;0.50;;;0.50;;
30519;SDS011;17300;50.374;8.006;2023-04-24T11:05:58;0.53;;;0.53;;
30519;SDS011;17300;50.374;8.006;2023-04-24T11:08:27;0.60;;;0.60;;
30519;SDS011;17300;50.374;8.006;2023-04-24T11:10:57;1.20;;;0.70;;
30519;SDS011;17300;50.374;8.006;2023-04-24T11:13:27;0.70;;;0.70;;
30519;SDS011;17300;50.374;8.006;2023-04-24T11:16:14;0.70;;;0.70;;
30519;SDS011;17300;50.374;8.006;2023-04-24T11:18:49;0.60;;;0.60;;
30519;SDS011;17300;50.374;8.006;2023-04-24T11:21:19;0.70;;;0.70;;
30519;SDS011;17300;50.374;8.006;2023-04-24T11:23:46;0.70;;;0.70;;
30519;SDS011;17300;50.374;8.006;2023-04-24T11:26:14;0.70;;;0.60;;
30519;SDS011;17300;50.374;8.006;2023-04-24T11:28:45;1.10;;;1.00;;
30519;SDS011;17300;50.374;8.006;2023-04-24T11:34:07;0.80;;;0.80;;
30519;SDS011;17300;50.374;8.006;2023-04-24T11:36:34;1.07;;;0.93;;
30519;SDS011;17300;50.374;8.006;2023-04-24T11:39:01;0.93;;;0.90;;
30519;SDS011;17300;50.374;8.006;2023-04-24T11:41:28;0.90;;;0.80;;
30519;SDS011;17300;50.374;8.006;2023-04-24T11:43:55;1.20;;;0.97;;
30519;SDS011;17300;50.374;8.006;2023-04-24T11:46:22;1.23;;;1.13;;
30519;SDS011;17300;50.374;8.006;2023-04-24T11:48:52;1.03;;;1.03;;
30519;SDS011;17300;50.374;8.006;2023-04-24T11:51:20;1.10;;;1.00;;
30519;SDS011;17300;50.374;8.006;2023-04-24T11:53:48;1.40;;;1.30;;
30519;SDS011;17300;50.374;8.006;2023-04-24T11:56:17;1.40;;;1.30;;
30519;SDS011;17300;50.374;8.006;2023-04-24T11:58:45;1.20;;;1.10;;
30519;SDS011;17300;50.374;8.006;2023-04-24T12:01:11;0.90;;;0.90;;
30519;SDS011;17300;50.374;8.006;2023-04-24T12:03:38;1.23;;;0.90;;
30519;SDS011;17300;50.374;8.006;2023-04-24T12:06:08;1.00;;;0.87;;
30519;SDS011;17300;50.374;8.006;2023-04-24T12:08:37;0.80;;;0.80;;
30519;SDS011;17300;50.374;8.006;2023-04-24T12:11:04;1.17;;;0.90;;
30519;SDS011;17300;50.374;8.006;2023-04-24T12:13:33;1.10;;;0.93;;
30519;SDS011;17300;50.374;8.006;2023-04-24T12:16:01;1.27;;;0.90;;
30519;SDS011;17300;50.374;8.006;2023-04-24T12:18:29;1.80;;;1.07;;
30519;SDS011;17300;50.374;8.006;2023-04-24T12:23:43;1.00;;;1.00;;
30519;SDS011;17300;50.374;8.006;2023-04-24T12:26:10;1.30;;;1.10;;
30519;SDS011;17300;50.374;8.006;2023-04-24T12:28:38;1.20;;;1.10;;
30519;SDS011;17300;50.374;8.006;2023-04-24T12:31:06;1.50;;;1.40;;
30519;SDS011;17300;50.374;8.006;2023-04-24T12:33:33;1.40;;;1.30;;
30519;SDS011;17300;50.374;8.006;2023-04-24T12:36:01;1.40;;;1.30;;
30519;SDS011;17300;50.374;8.006;2023-04-24T12:38:28;1.20;;;1.10;;
30519;SDS011;17300;50.374;8.006;2023-04-24T12:41:03;1.40;;;1.30;;
30519;SDS011;17300;50.374;8.006;2023-04-24T12:43:31;1.37;;;1.10;;
30519;SDS011;17300;50.374;8.006;2023-04-24T12:45:58;1.30;;;1.20;;
30519;SDS011;17300;50.374;8.006;2023-04-24T12:48:25;1.37;;;1.27;;
30519;SDS011;17300;50.374;8.006;2023-04-24T12:50:51;1.37;;;1.27;;
30519;SDS011;17300;50.374;8.006;2023-04-24T12:53:18;1.73;;;1.60;;
30519;SDS011;17300;50.374;8.006;2023-04-24T12:55:45;1.87;;;1.77;;
30519;SDS011;17300;50.374;8.006;2023-04-24T12:58:18;1.63;;;1.53;;
30519;SDS011;17300;50.374;8.006;2023-04-24T13:00:45;1.83;;;1.70;;
30519;SDS011;17300;50.374;8.006;2023-04-24T13:03:17;1.80;;;1.70;;
30519;SDS011;17300;50.374;8.006;2023-04-24T13:05:44;1.70;;;1.60;;
30519;SDS011;17300;50.374;8.006;2023-04-24T13:08:11;1.83;;;1.53;;
30519;SDS011;17300;50.374;8.006;2023-04-24T13:10:38;2.20;;;1.93;;
30519;SDS011;17300;50.374;8.006;2023-04-24T13:13:06;2.33;;;2.13;;
30519;SDS011;17300;50.374;8.006;2023-04-24T13:15:34;1.90;;;1.80;;
30519;SDS011;17300;50.374;8.006;2023-04-24T13:18:01;1.70;;;1.60;;
30519;SDS011;17300;50.374;8.006;2023-04-24T13:20:28;2.40;;;1.77;;
30519;SDS011;17300;50.374;8.006;2023-04-24T13:22:54;1.73;;;1.63;;
30519;SDS011;17300;50.374;8.006;2023-04-24T13:25:21;1.90;;;1.80;;
30519;SDS011;17300;50.374;8.006;2023-04-24T13:27:48;1.50;;;1.40;;
30519;SDS011;17300;50.374;8.006;2023-04-24T13:30:15;1.83;;;1.70;;
30519;SDS011;17300;50.374;8.006;2023-04-24T13:32:43;1.77;;;1.60;;
30519;SDS011;17300;50.374;8.006;2023-04-24T13:35:10;1.50;;;1.40;;
30519;SDS011;17300;50.374;8.006;2023-04-24T13:37:37;2.23;;;1.90;;
30519;SDS011;17300;50.374;8.006;2023-04-24T13:40:04;1.97;;;1.87;;
30519;SDS011;17300;50.374;8.006;2023-04-24T13:42:32;1.83;;;1.43;;
30519;SDS011;17300;50.374;8.006;2023-04-24T13:44:58;1.87;;;1.77;;
30519;SDS011;17300;50.374;8.006;2023-04-24T13:47:25;1.90;;;1.70;;
30519;SDS011;17300;50.374;8.006;2023-04-24T13:49:53;2.53;;;1.93;;
30519;SDS011;17300;50.374;8.006;2023-04-24T13:52:20;2.13;;;1.77;;
30519;SDS011;17300;50.374;8.006;2023-04-24T13:54:46;2.10;;;1.77;;
30519;SDS011;17300;50.374;8.006;2023-04-24T13:57:14;2.17;;;1.90;;
30519;SDS011;17300;50.374;8.006;2023-04-24T13:59:41;1.83;;;1.70;;
30519;SDS011;17300;50.374;8.006;2023-04-24T14:02:08;2.70;;;1.90;;
30519;SDS011;17300;50.374;8.006;2023-04-24T14:04:34;2.10;;;1.87;;
30519;SDS011;17300;50.374;8.006;2023-04-24T14:07:02;2.53;;;2.17;;
30519;SDS011;17300;50.374;8.006;2023-04-24T14:09:29;3.47;;;1.90;;
30519;SDS011;17300;50.374;8.006;2023-04-24T14:11:55;1.80;;;1.70;;
30519;SDS011;17300;50.374;8.006;2023-04-24T14:14:22;2.13;;;1.93;;
30519;SDS011;17300;50.374;8.006;2023-04-24T14:16:49;1.83;;;1.73;;
30519;SDS011;17300;50.374;8.006;2023-04-24T14:19:16;1.93;;;1.83;;
30519;SDS011;17300;50.374;8.006;2023-04-24T14:21:42;2.63;;;2.27;;
30519;SDS011;17300;50.374;8.006;2023-04-24T14:24:10;2.37;;;2.17;;
30519;SDS011;17300;50.374;8.006;2023-04-24T14:26:37;2.20;;;2.00;;
30519;SDS011;17300;50.374;8.006;2023-04-24T14:29:03;2.50;;;2.30;;
30519;SDS011;17300;50.374;8.006;2023-04-24T14:31:30;2.93;;;2.13;;
30519;SDS011;17300;50.374;8.006;2023-04-24T14:33:57;2.20;;;2.00;;
30519;SDS011;17300;50.374;8.006;2023-04-24T14:36:24;2.77;;;2.20;;
30519;SDS011;17300;50.374;8.006;2023-04-24T14:38:50;2.23;;;2.03;;
30519;SDS011;17300;50.374;8.006;2023-04-24T14:41:18;2.03;;;1.90;;
30519;SDS011;17300;50.374;8.006;2023-04-24T14:43:45;1.97;;;1.80;;
30519;SDS011;17300;50.374;8.006;2023-04-24T14:46:12;2.20;;;1.80;;
30519;SDS011;17300;50.374;8.006;2023-04-24T14:48:38;2.03;;;1.83;;
30519;SDS011;17300;50.374;8.006;2023-04-24T14:51:05;3.10;;;1.87;;
30519;SDS011;17300;50.374;8.006;2023-04-24T14:53:31;2.37;;;1.90;;
30519;SDS011;17300;50.374;8.006;2023-04-24T14:55:58;2.13;;;1.90;;